Continental, Arizona
Current Conditions -  °F | °C
As of 10:53 PM on Friday 19 Dec 2014 (Local Time) from KTUS Reporting Station
Clear Clear  
Wind Chill: 45°   Ceiling: Unl
Heat Index: 45°   Visibility: 10mi
Dew Point: 39°   Wind: 3mph
Humidity: 80%   Direction: 180°S
Pressure: 30.18"   Gusts: NA
Location:  31.9776°N, 110.921°W
Report Text: KTUS 200553Z 18003KT 10SM CLR 07/04 A3018 RMK AO2 SLP209 T00720039 10150 20067 51006
Loading
Personal Weather Stations






























Interactive Weather Map New forecast layout! Learn more

10-Day Weather Forecast

Advertisements
Track Severe Weather on mobile